Ocean Starr — WDG2073 — position and weather

sailwx.info

Track history (hours):
 
Tides and Currents Weather Stations Pressure Air Temp Water Temp Dewpoint Dewpoint Depression Visibility Wind Speed Wind Dir Waves Ship Positions

Oceanographic research ship Ocean Starr (USA)

Owner: Ocean Starr Holding, LLC, Seattle, WA. More information available from US FCC via Universal Licensing System and Coast Guard Vessel Documentation Center.

Last reported at 2019-Oct-11 22:35 UTC. Time now 2019-Dec-11 11:08 UTC.
Position N 47°40' W 122°24'.
Warning: this ship's position is months out of date.

Length 56 m; draft 4 m.

Type: Other ship. MMSI: 367122000.

Date/timePositionNaut miles runAvg speedWind from/ knotsBaromVisibWave heightAir tempDewpointWater temp
2019-Oct-11 22:35N 47°40' W 122°24'0 0.0
2019-Oct-11 22:30N 47°40' W 122°24'0 0.0
2019-Oct-11 22:00N 47°40' W 122°24'0 0.0
2019-Oct-11 21:30N 47°40' W 122°24'1 2.2
2019-Oct-11 21:00N 47°39' W 122°22'2 4.0
2019-Oct-11 20:30N 47°39' W 122°19'2 4.7
2019-Oct-11 20:00N 47°39' W 122°16'2 4.4
2019-Oct-11 19:29N 47°41' W 122°16'0 0.0
2019-Oct-11 19:00N 47°41' W 122°16'0 0.0
2019-Oct-11 18:18N 47°41' W 122°16'0 0.0
2019-Oct-11 18:00N 47°41' W 122°16'0 0.0
2019-Oct-11 17:30N 47°41' W 122°16'0 0.0
2019-Oct-11 17:00N 47°41' W 122°16'0 0.0
2019-Oct-11 16:29N 47°41' W 122°16'0 0.0
2019-Oct-11 15:58N 47°41' W 122°16'0 0.0
2019-Oct-11 14:40N 47°41' W 122°16'0 0.0
2019-Oct-11 14:26N 47°41' W 122°16'0 0.4
2019-Oct-11 14:00N 47°41' W 122°15'0 0.2
2019-Oct-11 13:26N 47°42' W 122°15'0 0.4
2019-Oct-11 12:58N 47°42' W 122°15'1 1.2
2019-Oct-11 12:30N 47°41' W 122°14'0 0.6
2019-Oct-11 11:58N 47°41' W 122°15'0 0.3
2019-Oct-11 11:30N 47°42' W 122°15'0 0.1
2019-Oct-11 11:00N 47°42' W 122°15'0 0.2
2019-Oct-11 10:30N 47°41' W 122°15'0 0.3
2019-Oct-11 10:00N 47°41' W 122°15'0 0.7
2019-Oct-11 09:30N 47°41' W 122°14'0 0.5
2019-Oct-11 09:00N 47°41' W 122°15'0 0.6
2019-Oct-11 08:29N 47°42' W 122°15'0 0.4
2019-Oct-11 08:00N 47°42' W 122°15'0 0.1
2019-Oct-11 07:30N 47°42' W 122°15'0 0.4
2019-Oct-11 07:00N 47°42' W 122°15'0 0.2
2019-Oct-11 06:30N 47°42' W 122°15'2 3.5
2019-Oct-11 06:00N 47°40' W 122°15'3 5.4
2019-Oct-11 05:30N 47°39' W 122°18'2 3.6
2019-Oct-11 05:00N 47°39' W 122°21'2 3.8
2019-Oct-11 04:30N 47°40' W 122°24'1 1.4
2019-Oct-11 04:00N 47°40' W 122°24'4 8.2
2019-Oct-11 03:30N 47°44' W 122°26'4 8.7
2019-Oct-11 03:00N 47°48' W 122°28'5 9.0
2019-Oct-11 02:30N 47°53' W 122°30'4 7.4
2019-Oct-11 02:00N 47°56' W 122°33'4 7.6
2019-Oct-11 01:30N 47°59' W 122°37'4 8.2
2019-Oct-11 01:00N 48°02' W 122°39'5 7.3
2019-Oct-11 00:23N 48°07' W 122°41'3 8.9
2019-Oct-11 00:00N 48°09' W 122°45'4 8.9
2019-Oct-10 23:30N 48°11' W 122°51'5 9.1
2019-Oct-10 22:59N 48°11' W 122°58'510.1
2019-Oct-10 22:30N 48°12' W 123°05'510.3
2019-Oct-10 22:00N 48°12' W 123°13'510.2
2019-Oct-10 21:30N 48°12' W 123°21'5 9.9
2019-Oct-10 21:00N 48°13' W 123°28'5 9.9
2019-Oct-10 20:29N 48°13' W 123°36'510.0
2019-Oct-10 19:59N 48°13' W 123°43'5 9.5
2019-Oct-10 19:30N 48°13' W 123°50'5 9.2
2019-Oct-10 19:00N 48°14' W 123°57'5 9.2
2019-Oct-10 18:30N 48°15' W 124°03'5 9.2
2019-Oct-10 18:00N 48°18' W 124°09'5 9.0
2019-Oct-10 17:30N 48°20' W 124°15'5 9.3
2019-Oct-10 17:00N 48°21' W 124°22'4 9.0
2019-Oct-10 16:30N 48°23' W 124°28'4 8.5
2019-Oct-10 16:00N 48°25' W 124°34'4 8.0
2019-Oct-10 15:30N 48°27' W 124°39'4 7.8
2019-Oct-10 15:00N 48°28' W 124°45'4 7.1
2019-Oct-10 14:30N 48°28' W 124°50'4 7.7
2019-Oct-10 14:00N 48°28' W 124°56'4 8.4
2019-Oct-10 13:30N 48°29' W 125°02'4 8.4
2019-Oct-10 13:00N 48°29' W 125°09'4 9.0
2019-Oct-10 12:30N 48°29' W 125°15'5 9.2
2019-Oct-10 12:00N 48°29' W 125°22'5 9.4
2019-Oct-10 11:30N 48°30' W 125°29'5 9.1
2019-Oct-10 11:00N 48°30' W 125°36'4 8.8
2019-Oct-10 10:30N 48°30' W 125°43'5 9.1
2019-Oct-10 10:00N 48°32' W 125°49'5 9.3
2019-Oct-10 09:30N 48°33' W 125°56'5 9.3
2019-Oct-10 09:00N 48°33' W 126°03'5 9.5
2019-Oct-10 08:30N 48°34' W 126°10'5 9.9
2019-Oct-10 08:00N 48°34' W 126°18'5 9.8
2019-Oct-10 07:30N 48°35' W 126°25'7 9.6
2019-Oct-10 06:47N 48°36' W 126°35'  
Track history (hours):
 
Tides and Currents Weather Stations Pressure Air Temp Water Temp Dewpoint Dewpoint Depression Visibility Wind Speed Wind Dir Waves Ship Positions

Oceanographic research ship Ocean Starr (USA)

Owner: Ocean Starr Holding, LLC, Seattle, WA. More information available from US FCC via Universal Licensing System and Coast Guard Vessel Documentation Center.

Last reported at 2019-Oct-11 22:35 UTC. Time now 2019-Dec-11 11:08 UTC.
Position N 47°40' W 122°24'.
Warning: this ship's position is months out of date.

Length 56 m; draft 4 m.

Type: Other ship. MMSI: 367122000.

Date/timePositionNaut miles runAvg speedWind from/ knotsBaromVisibWave heightAir tempDewpointWater temp
2019-Oct-11 22:35N 47°40' W 122°24'0 0.0
2019-Oct-11 22:30N 47°40' W 122°24'0 0.0
2019-Oct-11 22:00N 47°40' W 122°24'0 0.0
2019-Oct-11 21:30N 47°40' W 122°24'1 2.2
2019-Oct-11 21:00N 47°39' W 122°22'2 4.0
2019-Oct-11 20:30N 47°39' W 122°19'2 4.7
2019-Oct-11 20:00N 47°39' W 122°16'2 4.4
2019-Oct-11 19:29N 47°41' W 122°16'0 0.0
2019-Oct-11 19:00N 47°41' W 122°16'0 0.0
2019-Oct-11 18:18N 47°41' W 122°16'0 0.0
2019-Oct-11 18:00N 47°41' W 122°16'0 0.0
2019-Oct-11 17:30N 47°41' W 122°16'0 0.0
2019-Oct-11 17:00N 47°41' W 122°16'0 0.0
2019-Oct-11 16:29N 47°41' W 122°16'0 0.0
2019-Oct-11 15:58N 47°41' W 122°16'0 0.0
2019-Oct-11 14:40N 47°41' W 122°16'0 0.0
2019-Oct-11 14:26N 47°41' W 122°16'0 0.4
2019-Oct-11 14:00N 47°41' W 122°15'0 0.2
2019-Oct-11 13:26N 47°42' W 122°15'0 0.4
2019-Oct-11 12:58N 47°42' W 122°15'1 1.2
2019-Oct-11 12:30N 47°41' W 122°14'0 0.6
2019-Oct-11 11:58N 47°41' W 122°15'0 0.3
2019-Oct-11 11:30N 47°42' W 122°15'0 0.1
2019-Oct-11 11:00N 47°42' W 122°15'0 0.2
2019-Oct-11 10:30N 47°41' W 122°15'0 0.3
2019-Oct-11 10:00N 47°41' W 122°15'0 0.7
2019-Oct-11 09:30N 47°41' W 122°14'0 0.5
2019-Oct-11 09:00N 47°41' W 122°15'0 0.6
2019-Oct-11 08:29N 47°42' W 122°15'0 0.4
2019-Oct-11 08:00N 47°42' W 122°15'0 0.1
2019-Oct-11 07:30N 47°42' W 122°15'0 0.4
2019-Oct-11 07:00N 47°42' W 122°15'0 0.2
2019-Oct-11 06:30N 47°42' W 122°15'2 3.5
2019-Oct-11 06:00N 47°40' W 122°15'3 5.4
2019-Oct-11 05:30N 47°39' W 122°18'2 3.6
2019-Oct-11 05:00N 47°39' W 122°21'2 3.8
2019-Oct-11 04:30N 47°40' W 122°24'1 1.4
2019-Oct-11 04:00N 47°40' W 122°24'4 8.2
2019-Oct-11 03:30N 47°44' W 122°26'4 8.7
2019-Oct-11 03:00N 47°48' W 122°28'5 9.0
2019-Oct-11 02:30N 47°53' W 122°30'4 7.4
2019-Oct-11 02:00N 47°56' W 122°33'4 7.6
2019-Oct-11 01:30N 47°59' W 122°37'4 8.2
2019-Oct-11 01:00N 48°02' W 122°39'5 7.3
2019-Oct-11 00:23N 48°07' W 122°41'3 8.9
2019-Oct-11 00:00N 48°09' W 122°45'4 8.9
2019-Oct-10 23:30N 48°11' W 122°51'5 9.1
2019-Oct-10 22:59N 48°11' W 122°58'510.1
2019-Oct-10 22:30N 48°12' W 123°05'510.3
2019-Oct-10 22:00N 48°12' W 123°13'510.2
2019-Oct-10 21:30N 48°12' W 123°21'5 9.9
2019-Oct-10 21:00N 48°13' W 123°28'5 9.9
2019-Oct-10 20:29N 48°13' W 123°36'510.0
2019-Oct-10 19:59N 48°13' W 123°43'5 9.5
2019-Oct-10 19:30N 48°13' W 123°50'5 9.2
2019-Oct-10 19:00N 48°14' W 123°57'5 9.2
2019-Oct-10 18:30N 48°15' W 124°03'5 9.2
2019-Oct-10 18:00N 48°18' W 124°09'5 9.0
2019-Oct-10 17:30N 48°20' W 124°15'5 9.3
2019-Oct-10 17:00N 48°21' W 124°22'4 9.0
2019-Oct-10 16:30N 48°23' W 124°28'4 8.5
2019-Oct-10 16:00N 48°25' W 124°34'4 8.0
2019-Oct-10 15:30N 48°27' W 124°39'4 7.8
2019-Oct-10 15:00N 48°28' W 124°45'4 7.1
2019-Oct-10 14:30N 48°28' W 124°50'4 7.7
2019-Oct-10 14:00N 48°28' W 124°56'4 8.4
2019-Oct-10 13:30N 48°29' W 125°02'4 8.4
2019-Oct-10 13:00N 48°29' W 125°09'4 9.0
2019-Oct-10 12:30N 48°29' W 125°15'5 9.2
2019-Oct-10 12:00N 48°29' W 125°22'5 9.4
2019-Oct-10 11:30N 48°30' W 125°29'5 9.1
2019-Oct-10 11:00N 48°30' W 125°36'4 8.8
2019-Oct-10 10:30N 48°30' W 125°43'5 9.1
2019-Oct-10 10:00N 48°32' W 125°49'5 9.3
2019-Oct-10 09:30N 48°33' W 125°56'5 9.3
2019-Oct-10 09:00N 48°33' W 126°03'5 9.5
2019-Oct-10 08:30N 48°34' W 126°10'5 9.9
2019-Oct-10 08:00N 48°34' W 126°18'5 9.8
2019-Oct-10 07:30N 48°35' W 126°25'7 9.6
2019-Oct-10 06:47N 48°36' W 126°35'  

Dump ship's entire track history